Terminal Aerodrome Forecast
Issued by NWS

Home | Current Version | Previous Version | Text Only | Print | Product List | Glossary On
Versions: 1 2 3 4 5 6 7 8 9 10 11 12 13 14 15 16 17 18 19
000
FTPA31 PHFO 231737
TAFHNY
TAF
PHNY 231737Z 2318/2418 07005KT P6SM FEW050
     FM232000 22008KT P6SM VCSH BKN030
     FM240300 04011KT P6SM SCT030=

USA.gov is the U.S. government's official web portal to all federal, state and local government web resources and services.